createdAt,value
2022-12-13T00:07:38.685Z,78.9
2022-12-13T00:22:48.152Z,78.9
2022-12-13T00:37:57.065Z,78.7
2022-12-13T00:53:06.190Z,79.4
2022-12-13T01:08:16.510Z,78.9
2022-12-13T01:23:26.114Z,78.9
2022-12-13T01:38:38.814Z,78.9
2022-12-13T01:53:48.374Z,78.9
2022-12-13T02:08:57.630Z,78.9
2022-12-13T02:24:09.839Z,78.9
2022-12-13T02:39:31.428Z,78.9
2022-12-13T02:54:43.368Z,78.9
2022-12-13T03:09:52.757Z,78.9
2022-12-13T03:25:02.039Z,78.9
2022-12-13T03:40:11.274Z,78.9
2022-12-13T03:55:20.682Z,78.8
2022-12-13T04:10:31.757Z,78.8
2022-12-13T04:25:41.266Z,78.8
2022-12-13T04:40:50.626Z,78.6
2022-12-13T04:56:00.153Z,78.6
2022-12-13T05:11:09.634Z,78.6
2022-12-13T05:26:19.292Z,78.7
2022-12-13T05:41:33.121Z,78.6
2022-12-13T05:56:42.316Z,78.6
2022-12-13T06:12:01.989Z,78.5
2022-12-13T06:27:11.592Z,78.4
2022-12-13T06:42:23.071Z,78.5
2022-12-13T06:57:33.071Z,78.6
2022-12-13T07:12:42.283Z,78.6
2022-12-13T07:27:51.574Z,78.7
2022-12-13T07:43:01.194Z,78.6
2022-12-13T07:58:10.578Z,78.5
2022-12-13T08:13:22.156Z,78.4
2022-12-13T08:28:36.163Z,78.1
2022-12-13T08:43:45.447Z,78
2022-12-13T08:58:55.209Z,77.9
2022-12-13T09:14:04.603Z,77.7
2022-12-13T09:29:13.804Z,77.7
2022-12-13T09:45:03.659Z,77.6
2022-12-13T10:00:13.927Z,77.5
2022-12-13T10:15:23.521Z,77.5
2022-12-13T10:30:33.836Z,77.4
2022-12-13T10:45:44.358Z,77.3
2022-12-13T11:00:54.757Z,77.3
2022-12-13T11:16:04.240Z,77.2
2022-12-13T11:31:13.671Z,77.1
2022-12-13T11:46:23.783Z,77
2022-12-13T12:01:39.571Z,76.7
2022-12-13T12:16:49.826Z,76.6
2022-12-13T12:32:00.199Z,76.3
2022-12-13T12:49:00.982Z,76.1
2022-12-13T13:04:49.856Z,75.7
2022-12-13T13:20:13.144Z,76.4
2022-12-13T13:35:22.897Z,76.7
2022-12-13T13:50:33.253Z,76.9
2022-12-13T14:05:42.897Z,77.1
2022-12-13T14:20:52.015Z,77.2
2022-12-13T14:36:01.136Z,77.4
2022-12-13T14:51:10.497Z,77.6
2022-12-13T15:06:20.103Z,77.7
2022-12-13T15:21:33.479Z,77.8
2022-12-13T15:36:42.807Z,78
2022-12-13T15:51:51.956Z,78.2
2022-12-13T16:07:01.331Z,78.3
2022-12-13T16:22:10.743Z,78.5
2022-12-13T16:37:27.937Z,78.5
2022-12-13T16:52:37.793Z,78.6
2022-12-13T17:07:47.388Z,79
2022-12-13T17:22:56.951Z,78.7
2022-12-13T17:38:06.240Z,78.7
2022-12-13T17:53:15.306Z,78.7
2022-12-13T18:08:24.454Z,78.8
2022-12-13T18:23:33.583Z,78.4
2022-12-13T18:38:42.790Z,78.8
2022-12-13T18:53:52.637Z,78.8
2022-12-13T19:09:01.858Z,78.8
2022-12-13T19:24:11.499Z,78.9
2022-12-13T19:39:20.772Z,78.8
2022-12-13T19:54:34.581Z,78.8
2022-12-13T20:09:44.694Z,78.9
2022-12-13T20:24:54.094Z,78.9
2022-12-13T20:40:03.591Z,78.8
2022-12-13T20:55:12.614Z,78.8
2022-12-13T21:10:21.775Z,78.8
2022-12-13T21:25:32.275Z,78.8
2022-12-13T21:40:41.654Z,78.8
2022-12-13T21:57:02.045Z,77.7
2022-12-13T22:12:13.011Z,78.8
2022-12-13T22:27:22.430Z,78.8
2022-12-13T22:42:32.690Z,78.8
2022-12-13T22:57:49.157Z,78.8
2022-12-13T23:12:58.745Z,78.8
2022-12-13T23:28:08.359Z,78.7
2022-12-13T23:43:18.095Z,78.6
2022-12-13T23:58:29.193Z,78.6
